Terminal Aerodrome Forecast
Issued by NWS Sterling, VA

Current Version | Previous Version | Text Only | Print | Product List | Glossary On
Versions: 1 2 3 4 5 6 7 8 9 10 11 12 13 14 15 16
000
FTUS41 KLWX 050536
TAFMRB
TAF
KMRB 050536Z 0506/0606 VRB03KT 4SM BR OVC045
     FM050800 VRB03KT 4SM BR OVC015
     FM051000 VRB03KT 3SM BR OVC008
     FM051300 09004KT P6SM BKN015
     FM051800 13004KT P6SM BKN050
     FM052300 12005KT P6SM SCT250=

USA.gov is the U.S. government's official web portal to all federal, state and local government web resources and services.